Time;durP1;ratioP1;P1;durP2;ratioP2;P2;SDS_P1;SDS_P2;PMS_P1;PMS_P2;Temp;Humidity;BMP_temperature;BMP_pressure;BME280_temperature;BME280_humidity;BME280_pressure;Samples;Min_cycle;Max_cycle;Signal;HPM_P1;HPM_P2
2023/07/29 00:00:34;;;;;;;8.27;2.47;;;14.90;99.90;;;;;;4991018;28;20416;-75
2023/07/29 00:03:00;;;;;;;6.55;1.55;;;14.90;99.90;;;;;;4990273;28;20133;-74
2023/07/29 00:05:26;;;;;;;8.00;1.85;;;14.80;99.90;;;;;;4991117;28;20027;-74
2023/07/29 00:07:52;;;;;;;5.80;1.80;;;14.80;99.90;;;;;;4990533;28;20054;-75
2023/07/29 00:10:18;;;;;;;3.65;1.58;;;14.80;99.90;;;;;;4990651;28;20046;-74
2023/07/29 00:12:43;;;;;;;7.82;2.25;;;14.70;99.90;;;;;;4993594;28;20026;-74
2023/07/29 00:15:10;;;;;;;5.82;1.85;;;14.70;99.90;;;;;;4995053;28;20424;-73
2023/07/29 00:17:35;;;;;;;5.68;1.85;;;14.80;99.90;;;;;;4994935;28;20033;-73
2023/07/29 00:20:01;;;;;;;6.78;1.55;;;14.80;99.90;;;;;;4994146;28;20459;-73
2023/07/29 00:22:27;;;;;;;8.63;1.95;;;14.80;99.90;;;;;;4994481;28;20027;-73
2023/07/29 00:24:54;;;;;;;6.53;1.77;;;14.70;99.90;;;;;;4994287;28;20038;-73
2023/07/29 00:27:21;;;;;;;5.32;1.48;;;14.80;99.90;;;;;;4994818;28;20042;-73
2023/07/29 00:29:47;;;;;;;7.00;2.10;;;14.80;99.90;;;;;;4994179;28;20030;-73
2023/07/29 00:32:12;;;;;;;6.28;1.80;;;14.70;99.90;;;;;;4994755;28;20057;-73
2023/07/29 00:34:38;;;;;;;5.93;1.70;;;14.70;99.90;;;;;;4994491;28;20061;-74
2023/07/29 00:37:05;;;;;;;9.60;2.83;;;14.70;99.90;;;;;;4992604;28;20050;-73
2023/07/29 00:39:32;;;;;;;5.72;2.15;;;14.70;99.90;;;;;;4995064;28;20058;-73
2023/07/29 00:41:58;;;;;;;6.07;1.58;;;14.60;99.90;;;;;;4993615;28;20101;-73
2023/07/29 00:44:23;;;;;;;7.70;2.30;;;14.60;99.90;;;;;;4994156;28;20078;-74
2023/07/29 00:46:52;;;;;;;8.45;2.58;;;14.50;99.90;;;;;;4972977;28;20037;-73
2023/07/29 00:49:19;;;;;;;6.35;1.52;;;14.60;99.90;;;;;;4973544;28;20130;-73
2023/07/29 00:51:45;;;;;;;6.43;2.08;;;14.50;99.90;;;;;;4974896;28;20026;-74
2023/07/29 00:54:11;;;;;;;6.82;1.83;;;14.50;99.90;;;;;;4975081;28;20126;-73
2023/07/29 00:56:37;;;;;;;6.68;1.77;;;14.60;99.90;;;;;;4974835;28;20030;-73
2023/07/29 00:59:04;;;;;;;8.15;2.10;;;14.60;99.90;;;;;;4974199;28;20098;-73
2023/07/29 01:01:30;;;;;;;6.25;1.70;;;14.60;99.90;;;;;;4973708;28;20355;-73
2023/07/29 01:03:57;;;;;;;9.45;2.17;;;14.60;99.90;;;;;;4974139;28;20488;-73
2023/07/29 01:06:41;;;;;;;8.52;1.98;;;14.60;99.90;;;;;;4975009;28;20141;-73
2023/07/29 01:09:07;;;;;;;7.03;1.92;;;14.60;99.90;;;;;;4974548;28;20019;-73
2023/07/29 01:11:33;;;;;;;10.45;2.00;;;14.60;99.90;;;;;;4974684;28;20093;-74
2023/07/29 01:14:11;;;;;;;8.63;2.10;;;14.60;99.90;;;;;;4974244;28;20035;-73
2023/07/29 01:16:44;;;;;;;11.32;2.25;;;14.70;99.90;;;;;;4974926;28;20027;-75
2023/07/29 01:19:38;;;;;;;10.52;2.15;;;14.80;99.90;;;;;;4974962;28;20069;-73
2023/07/29 01:22:05;;;;;;;7.97;2.15;;;14.90;99.90;;;;;;4974004;28;20038;-73
2023/07/29 01:24:31;;;;;;;9.88;2.80;;;14.80;99.90;;;;;;4973584;28;20031;-74
2023/07/29 01:26:57;;;;;;;10.15;2.17;;;14.80;99.90;;;;;;4974423;28;20037;-73
2023/07/29 01:29:22;;;;;;;5.75;2.10;;;14.90;99.90;;;;;;4974335;28;20022;-73
2023/07/29 01:31:54;;;;;;;9.43;2.72;;;14.80;99.90;;;;;;4973384;28;20453;-74
2023/07/29 01:34:50;;;;;;;7.75;1.73;;;14.80;99.90;;;;;;4974226;28;20102;-73
2023/07/29 01:37:22;;;;;;;8.38;2.10;;;14.80;99.90;;;;;;4974292;28;20086;-73
2023/07/29 01:39:50;;;;;;;8.35;2.47;;;14.80;99.90;;;;;;4973979;28;20476;-73
2023/07/29 01:42:16;;;;;;;9.57;2.40;;;14.80;99.90;;;;;;4989430;28;20030;-73
2023/07/29 01:44:42;;;;;;;7.60;2.17;;;14.60;99.90;;;;;;4989345;28;20042;-73
2023/07/29 01:47:08;;;;;;;7.50;2.63;;;14.50;99.90;;;;;;4973776;28;20118;-73
2023/07/29 01:49:34;;;;;;;9.30;2.28;;;14.60;99.90;;;;;;4974030;28;20118;-73
2023/07/29 01:52:00;;;;;;;13.77;2.65;;;14.50;99.90;;;;;;4974114;28;20038;-73
2023/07/29 01:54:25;;;;;;;14.35;3.00;;;14.50;99.90;;;;;;4974041;28;20525;-73
2023/07/29 01:56:51;;;;;;;10.25;2.20;;;14.50;99.90;;;;;;4973755;28;20118;-73
2023/07/29 01:59:17;;;;;;;12.43;2.20;;;14.40;99.90;;;;;;4974145;28;20361;-73
2023/07/29 02:01:43;;;;;;;7.82;2.47;;;14.40;99.90;;;;;;4973752;28;20027;-72
2023/07/29 02:04:08;;;;;;;13.98;2.70;;;14.40;99.90;;;;;;4987940;28;20077;-73
2023/07/29 02:06:34;;;;;;;13.02;2.90;;;14.30;99.90;;;;;;4974009;28;20118;-73
2023/07/29 02:09:00;;;;;;;10.00;2.33;;;14.40;99.90;;;;;;4973143;28;20472;-73
2023/07/29 02:11:27;;;;;;;14.65;3.25;;;14.40;99.90;;;;;;4973668;28;20022;-73
2023/07/29 02:13:55;;;;;;;17.17;2.90;;;14.30;99.90;;;;;;4972907;28;20373;-73
2023/07/29 02:16:22;;;;;;;15.88;3.28;;;14.20;99.90;;;;;;4973717;28;20058;-73
2023/07/29 02:18:49;;;;;;;11.90;2.60;;;14.10;99.90;;;;;;4972951;28;20384;-75
2023/07/29 02:21:15;;;;;;;9.32;2.90;;;14.10;99.90;;;;;;4973522;28;20041;-73
2023/07/29 02:23:41;;;;;;;8.52;2.72;;;14.10;99.90;;;;;;4973294;28;20118;-73
2023/07/29 02:26:07;;;;;;;12.38;2.75;;;14.10;99.90;;;;;;4972896;28;20511;-73
2023/07/29 02:28:32;;;;;;;12.43;2.85;;;14.20;99.90;;;;;;4973353;28;20045;-73
2023/07/29 02:31:23;;;;;;;11.65;2.58;;;14.20;99.90;;;;;;4972502;28;20031;-73
2023/07/29 02:33:49;;;;;;;10.52;2.60;;;14.20;99.90;;;;;;4972839;28;20046;-75
2023/07/29 02:36:16;;;;;;;11.23;2.50;;;14.20;99.90;;;;;;4972895;28;20030;-74
2023/07/29 02:38:42;;;;;;;9.55;2.78;;;14.10;99.90;;;;;;4988257;28;20030;-73
2023/07/29 02:41:12;;;;;;;14.25;2.63;;;14.10;99.90;;;;;;4972804;28;20027;-73
2023/07/29 02:43:38;;;;;;;14.70;2.65;;;14.10;99.90;;;;;;4973111;28;20042;-73
2023/07/29 02:46:04;;;;;;;10.93;2.42;;;14.10;99.90;;;;;;4972788;28;20030;-73
2023/07/29 02:48:30;;;;;;;6.32;2.60;;;14.00;99.90;;;;;;4973105;28;20027;-73
2023/07/29 02:50:56;;;;;;;15.48;3.33;;;14.10;99.90;;;;;;4973056;28;20177;-73
2023/07/29 02:53:22;;;;;;;9.77;2.50;;;14.10;99.90;;;;;;4973211;28;20523;-73
2023/07/29 02:55:49;;;;;;;15.18;3.50;;;14.10;99.90;;;;;;4972881;28;20037;-73
2023/07/29 02:58:14;;;;;;;9.30;1.95;;;14.00;99.90;;;;;;4972645;28;20439;-74
2023/07/29 03:00:43;;;;;;;11.38;2.58;;;14.00;99.90;;;;;;4973201;28;20044;-74
2023/07/29 03:03:09;;;;;;;13.50;2.63;;;14.00;99.90;;;;;;4972404;28;20385;-73
2023/07/29 03:05:35;;;;;;;13.57;2.38;;;14.00;99.90;;;;;;4973400;28;20113;-73
2023/07/29 03:08:01;;;;;;;13.95;2.63;;;14.00;99.90;;;;;;4972551;28;20041;-71
2023/07/29 03:10:27;;;;;;;8.77;2.42;;;14.00;99.90;;;;;;4972774;28;20097;-72
2023/07/29 03:12:56;;;;;;;12.85;2.30;;;14.00;99.90;;;;;;4972712;28;20057;-75
2023/07/29 03:15:25;;;;;;;15.10;2.80;;;14.00;99.90;;;;;;4973483;28;20034;-72
2023/07/29 03:17:51;;;;;;;11.77;2.50;;;14.00;99.90;;;;;;4973234;28;20425;-74
2023/07/29 03:20:17;;;;;;;14.00;2.65;;;14.00;99.90;;;;;;4972522;28;20042;-73
2023/07/29 03:22:44;;;;;;;11.10;2.60;;;14.00;99.90;;;;;;4972668;28;20419;-73
2023/07/29 03:25:10;;;;;;;11.43;2.92;;;13.90;99.90;;;;;;4972218;28;20129;-72
2023/07/29 03:27:39;;;;;;;9.85;2.80;;;13.90;99.90;;;;;;4972237;28;20476;-72
2023/07/29 03:30:06;;;;;;;16.15;2.55;;;13.90;99.90;;;;;;4971816;28;20042;-73
2023/07/29 03:32:32;;;;;;;12.38;2.60;;;13.90;99.90;;;;;;4972420;28;20035;-73
2023/07/29 03:34:58;;;;;;;14.45;2.72;;;14.00;99.90;;;;;;4971566;28;20039;-73
2023/07/29 03:37:24;;;;;;;14.60;3.38;;;14.00;99.90;;;;;;4987077;28;20049;-73
2023/07/29 03:39:51;;;;;;;12.45;2.95;;;13.80;99.90;;;;;;4972274;28;20118;-73
2023/07/29 03:42:17;;;;;;;15.85;3.03;;;13.90;99.90;;;;;;4972006;28;20023;-73
2023/07/29 03:44:43;;;;;;;13.05;2.75;;;13.80;99.90;;;;;;4972254;28;20054;-73
2023/07/29 03:47:09;;;;;;;15.38;3.08;;;13.80;99.90;;;;;;4971117;28;20177;-73
2023/07/29 03:49:34;;;;;;;15.02;3.00;;;13.80;99.90;;;;;;4972168;28;20061;-73
2023/07/29 03:52:00;;;;;;;14.15;2.92;;;13.80;99.90;;;;;;4971597;28;20076;-73
2023/07/29 03:54:26;;;;;;;10.35;3.03;;;13.80;99.90;;;;;;4972061;28;20027;-72
2023/07/29 03:56:51;;;;;;;11.10;2.30;;;13.80;99.90;;;;;;4972500;28;20027;-72
2023/07/29 03:59:17;;;;;;;11.55;2.70;;;13.80;99.90;;;;;;4971389;28;20022;-72
2023/07/29 04:01:43;;;;;;;13.48;2.65;;;13.80;99.90;;;;;;4971831;28;20052;-73
2023/07/29 04:04:08;;;;;;;16.67;3.00;;;13.70;99.90;;;;;;4971346;28;20035;-73
2023/07/29 04:06:34;;;;;;;14.45;2.90;;;13.70;99.90;;;;;;4972204;28;20105;-73
2023/07/29 04:09:00;;;;;;;14.40;2.70;;;13.70;99.90;;;;;;4971548;28;20106;-73
2023/07/29 04:11:25;;;;;;;14.10;2.40;;;13.60;99.90;;;;;;4971873;28;20085;-73
2023/07/29 04:13:51;;;;;;;12.55;2.78;;;13.60;99.90;;;;;;4970691;28;20360;-74
2023/07/29 04:16:17;;;;;;;12.52;2.80;;;13.60;99.90;;;;;;4971530;28;20073;-73
2023/07/29 04:18:43;;;;;;;14.13;2.58;;;13.60;99.90;;;;;;4972315;28;20035;-73
2023/07/29 04:21:09;;;;;;;12.55;3.17;;;13.60;99.90;;;;;;4971562;28;20089;-73
2023/07/29 04:23:35;;;;;;;10.05;2.35;;;13.60;99.90;;;;;;4971572;28;20031;-73
2023/07/29 04:26:01;;;;;;;12.23;2.70;;;13.60;99.90;;;;;;4971426;28;20023;-74
2023/07/29 04:28:26;;;;;;;9.45;2.65;;;13.60;99.90;;;;;;4971399;28;20031;-73
2023/07/29 04:30:52;;;;;;;11.18;2.85;;;13.50;99.90;;;;;;4971454;28;20031;-73
2023/07/29 04:33:18;;;;;;;6.60;2.10;;;13.50;99.90;;;;;;4970905;28;20435;-74
2023/07/29 04:35:44;;;;;;;11.98;3.05;;;13.50;99.90;;;;;;4971924;28;20027;-73
2023/07/29 04:38:09;;;;;;;10.48;2.17;;;13.50;99.90;;;;;;4970726;28;20109;-73
2023/07/29 04:40:35;;;;;;;14.00;2.88;;;13.50;99.90;;;;;;4971570;28;20049;-73
2023/07/29 04:43:01;;;;;;;8.35;2.50;;;13.50;99.90;;;;;;4971339;28;20035;-73
2023/07/29 04:45:31;;;;;;;9.70;2.78;;;13.50;99.90;;;;;;4971484;28;20037;-73
2023/07/29 04:47:58;;;;;;;13.57;2.95;;;13.50;99.90;;;;;;4970294;28;20133;-75
2023/07/29 04:50:23;;;;;;;12.57;2.92;;;13.50;99.90;;;;;;4971487;28;20150;-73
2023/07/29 04:52:49;;;;;;;15.77;2.67;;;13.50;99.90;;;;;;4971462;28;20097;-73
2023/07/29 04:55:15;;;;;;;10.90;2.72;;;13.50;99.90;;;;;;4970533;28;20035;-73
2023/07/29 04:57:41;;;;;;;11.63;2.55;;;13.50;99.90;;;;;;4972858;28;20046;-73
2023/07/29 05:00:07;;;;;;;11.57;2.72;;;13.60;99.90;;;;;;4974275;28;20110;-73
2023/07/29 05:02:33;;;;;;;10.82;2.60;;;13.60;99.90;;;;;;4975433;28;20038;-73
2023/07/29 05:04:58;;;;;;;13.40;3.05;;;13.60;99.90;;;;;;4974643;28;20035;-76
2023/07/29 05:07:24;;;;;;;11.40;2.70;;;13.60;99.90;;;;;;4974610;28;20070;-73
2023/07/29 05:09:50;;;;;;;16.50;3.15;;;13.60;99.90;;;;;;4974669;28;20476;-73
2023/07/29 05:12:15;;;;;;;8.50;2.00;;;13.60;99.90;;;;;;4974109;28;20066;-73
2023/07/29 05:14:41;;;;;;;12.38;2.15;;;13.60;99.90;;;;;;4974753;28;20042;-73
2023/07/29 05:17:07;;;;;;;18.58;2.88;;;13.70;99.90;;;;;;4974278;28;20027;-73
2023/07/29 05:19:32;;;;;;;15.30;2.65;;;13.70;99.90;;;;;;4974723;28;20183;-73
2023/07/29 05:21:58;;;;;;;14.18;2.40;;;13.80;99.90;;;;;;4973045;28;20477;-73
2023/07/29 05:24:24;;;;;;;9.10;2.33;;;13.90;99.90;;;;;;4974066;28;20161;-73
2023/07/29 05:26:50;;;;;;;11.80;2.55;;;14.00;99.90;;;;;;4974536;28;20042;-73
2023/07/29 05:29:15;;;;;;;10.10;2.78;;;14.10;99.90;;;;;;4974464;28;20459;-73
2023/07/29 05:31:41;;;;;;;10.43;2.25;;;14.20;99.90;;;;;;4974660;28;20022;-73
2023/07/29 05:34:07;;;;;;;14.63;2.83;;;14.20;99.90;;;;;;4974161;28;20030;-74
2023/07/29 05:36:32;;;;;;;16.73;2.88;;;14.20;99.90;;;;;;4974239;28;20097;-73
2023/07/29 05:38:58;;;;;;;16.02;2.67;;;14.20;99.90;;;;;;4974219;28;20031;-73
2023/07/29 05:41:27;;;;;;;14.90;2.28;;;14.30;99.90;;;;;;4973802;28;20463;-74
2023/07/29 05:43:53;;;;;;;16.45;2.90;;;14.40;99.90;;;;;;4973888;28;20039;-74
2023/07/29 05:46:21;;;;;;;15.65;2.92;;;14.40;99.90;;;;;;4988523;28;20039;-74
2023/07/29 05:48:47;;;;;;;16.50;2.92;;;14.50;99.90;;;;;;4974243;28;20034;-74
2023/07/29 05:51:13;;;;;;;9.88;2.50;;;14.60;99.90;;;;;;4973840;28;20027;-74
2023/07/29 05:53:39;;;;;;;8.13;2.72;;;14.70;99.90;;;;;;4974423;28;20042;-73
2023/07/29 05:56:04;;;;;;;13.63;2.83;;;14.90;99.90;;;;;;4973502;28;20059;-73
2023/07/29 05:58:31;;;;;;;10.35;2.25;;;15.00;99.90;;;;;;4974452;28;20026;-73
2023/07/29 06:00:57;;;;;;;12.40;2.88;;;15.10;99.90;;;;;;4973868;28;20027;-73
2023/07/29 06:03:23;;;;;;;13.77;2.67;;;15.20;99.90;;;;;;4973231;28;20106;-73
2023/07/29 06:05:49;;;;;;;11.60;2.58;;;15.30;99.90;;;;;;4973637;28;20448;-74
2023/07/29 06:08:15;;;;;;;8.75;2.63;;;15.50;99.90;;;;;;4973452;28;20031;-73
2023/07/29 06:10:41;;;;;;;12.20;2.50;;;15.60;99.90;;;;;;4973558;28;20077;-73
2023/07/29 06:13:07;;;;;;;6.25;2.08;;;15.60;99.90;;;;;;4973215;28;20026;-74
2023/07/29 06:15:32;;;;;;;16.17;3.15;;;15.60;99.90;;;;;;4973518;28;20043;-73
2023/07/29 06:17:58;;;;;;;11.93;2.53;;;15.60;99.90;;;;;;4973467;28;20182;-73
2023/07/29 06:20:24;;;;;;;10.05;2.60;;;15.70;99.90;;;;;;4973245;28;20165;-74
2023/07/29 06:22:49;;;;;;;10.30;2.25;;;15.80;99.90;;;;;;4973861;28;20058;-73
2023/07/29 06:25:15;;;;;;;19.90;3.20;;;15.80;99.90;;;;;;4972924;28;20035;-73
2023/07/29 06:27:41;;;;;;;13.85;2.80;;;15.80;99.90;;;;;;4973394;28;20525;-74
2023/07/29 06:30:07;;;;;;;13.85;2.72;;;15.80;99.90;;;;;;4972850;28;20030;-73
2023/07/29 06:32:34;;;;;;;12.35;2.45;;;15.80;99.90;;;;;;4973465;28;20402;-74
2023/07/29 06:34:59;;;;;;;11.80;2.40;;;15.90;99.90;;;;;;4973232;28;20097;-74
2023/07/29 06:37:25;;;;;;;11.80;2.63;;;16.10;99.90;;;;;;4972791;28;20643;-74
2023/07/29 06:39:51;;;;;;;16.13;2.53;;;16.00;99.90;;;;;;4973600;28;20035;-73
2023/07/29 06:42:16;;;;;;;14.48;2.63;;;16.00;99.90;;;;;;4972692;28;20488;-73
2023/07/29 06:44:42;;;;;;;17.63;2.80;;;16.20;99.90;;;;;;4973591;28;20031;-73
2023/07/29 06:47:08;;;;;;;13.98;2.75;;;16.20;99.90;;;;;;4971257;28;20522;-74
2023/07/29 06:49:33;;;;;;;10.77;2.75;;;16.20;99.90;;;;;;4974116;28;20022;-74
2023/07/29 06:51:59;;;;;;;12.52;2.65;;;16.30;99.90;;;;;;4972974;28;20100;-74
2023/07/29 06:54:28;;;;;;;11.13;2.63;;;16.40;99.90;;;;;;4972316;28;20639;-75
2023/07/29 06:56:54;;;;;;;9.80;1.95;;;16.40;99.90;;;;;;4972868;28;20101;-74
2023/07/29 06:59:20;;;;;;;10.15;2.45;;;16.40;99.90;;;;;;4971985;28;20441;-74
2023/07/29 07:01:46;;;;;;;13.70;2.70;;;16.50;99.90;;;;;;4972659;28;20165;-75
2023/07/29 07:04:12;;;;;;;9.90;2.40;;;16.50;99.90;;;;;;4972120;28;20069;-75
2023/07/29 07:06:38;;;;;;;6.70;2.40;;;16.60;99.90;;;;;;4972785;28;20050;-74
2023/07/29 07:09:03;;;;;;;13.30;2.33;;;16.70;99.90;;;;;;4972770;28;20026;-74
2023/07/29 07:11:29;;;;;;;10.18;2.00;;;16.70;99.90;;;;;;4972075;28;20034;-74
2023/07/29 07:13:55;;;;;;;11.80;2.42;;;16.80;99.90;;;;;;4972198;28;20106;-74
2023/07/29 07:16:20;;;;;;;11.60;2.53;;;16.80;99.90;;;;;;4971853;28;20023;-75
2023/07/29 07:18:46;;;;;;;12.15;2.58;;;16.90;99.90;;;;;;4972886;28;20479;-74
2023/07/29 07:21:12;;;;;;;16.40;3.10;;;16.90;99.90;;;;;;4971274;28;20491;-75
2023/07/29 07:23:39;;;;;;;11.88;2.22;;;17.00;99.90;;;;;;4971050;28;20031;-75
2023/07/29 07:26:05;;;;;;;10.00;2.15;;;17.00;99.90;;;;;;4972336;28;20038;-75
2023/07/29 07:28:30;;;;;;;9.98;2.10;;;17.00;99.90;;;;;;4972211;28;20486;-75
2023/07/29 07:30:56;;;;;;;12.20;2.50;;;17.10;99.90;;;;;;4972455;28;20054;-74
2023/07/29 07:33:22;;;;;;;14.13;2.58;;;17.20;99.90;;;;;;4971618;28;20027;-75
2023/07/29 07:35:48;;;;;;;15.75;2.42;;;17.30;99.90;;;;;;4972438;28;20133;-75
2023/07/29 07:38:14;;;;;;;9.43;3.08;;;17.40;99.90;;;;;;4971060;28;20148;-75
2023/07/29 07:40:40;;;;;;;10.75;2.28;;;17.50;99.90;;;;;;4971810;28;20464;-74
2023/07/29 07:43:05;;;;;;;7.95;2.40;;;17.50;99.90;;;;;;4971572;28;20031;-74
2023/07/29 07:45:32;;;;;;;11.55;2.63;;;17.50;99.90;;;;;;4970893;28;20404;-74
2023/07/29 07:47:58;;;;;;;12.20;2.38;;;17.70;99.90;;;;;;4971771;28;20086;-75
2023/07/29 07:50:24;;;;;;;11.00;2.55;;;17.80;99.90;;;;;;4971446;28;20037;-76
2023/07/29 07:52:50;;;;;;;7.10;2.08;;;17.80;99.90;;;;;;4971535;28;20027;-75
2023/07/29 07:55:16;;;;;;;13.02;2.60;;;17.70;99.90;;;;;;4971315;28;20360;-75
2023/07/29 07:57:41;;;;;;;8.02;2.13;;;17.60;99.90;;;;;;4971937;28;20023;-75
2023/07/29 08:00:08;;;;;;;11.70;2.30;;;17.50;99.90;;;;;;4975345;28;20042;-76
2023/07/29 08:02:33;;;;;;;11.50;2.97;;;17.40;99.90;;;;;;4971218;28;20506;-75
2023/07/29 08:04:59;;;;;;;10.48;2.10;;;17.40;99.90;;;;;;4972656;28;20038;-76
2023/07/29 08:07:25;;;;;;;8.43;2.10;;;17.60;99.90;;;;;;4970610;28;20045;-75
2023/07/29 08:09:50;;;;;;;13.15;2.55;;;17.50;99.90;;;;;;4971526;28;20027;-75
2023/07/29 08:12:16;;;;;;;8.23;1.90;;;17.60;99.90;;;;;;4970184;28;20035;-74
2023/07/29 08:14:42;;;;;;;12.32;2.13;;;17.80;99.90;;;;;;4970516;28;20041;-74
2023/07/29 08:17:07;;;;;;;8.27;2.10;;;17.90;99.90;;;;;;4971358;28;20022;-73
2023/07/29 08:19:35;;;;;;;10.93;2.00;;;18.00;99.90;;;;;;4970603;28;20031;-76
2023/07/29 08:22:03;;;;;;;6.68;2.08;;;18.10;99.90;;;;;;4969579;28;20493;-75
2023/07/29 08:24:28;;;;;;;8.18;1.80;;;18.20;99.90;;;;;;4970234;28;20440;-75
2023/07/29 08:26:54;;;;;;;7.57;2.10;;;18.30;99.90;;;;;;4971175;28;20467;-75
2023/07/29 08:29:19;;;;;;;10.10;2.03;;;18.40;99.90;;;;;;4970917;28;20106;-75
2023/07/29 08:31:45;;;;;;;9.70;2.08;;;18.40;99.90;;;;;;4971574;28;20042;-75
2023/07/29 08:34:11;;;;;;;10.38;2.30;;;18.60;99.90;;;;;;4974852;28;20031;-77
2023/07/29 08:36:36;;;;;;;6.95;1.70;;;18.60;99.90;;;;;;4975045;28;20054;-75
2023/07/29 08:39:02;;;;;;;12.60;2.63;;;18.60;99.90;;;;;;4974828;28;20056;-76
2023/07/29 08:41:40;;;;;;;5.93;1.92;;;18.80;99.90;;;;;;4974711;28;20031;-74
2023/07/29 08:44:18;;;;;;;7.53;2.10;;;18.60;99.90;;;;;;4974970;28;20046;-74
2023/07/29 08:46:44;;;;;;;11.45;2.05;;;18.80;99.90;;;;;;4974699;28;20026;-75
2023/07/29 08:49:13;;;;;;;8.98;2.30;;;18.90;99.90;;;;;;4974730;28;20421;-76
2023/07/29 08:51:42;;;;;;;9.68;2.10;;;19.00;99.90;;;;;;4974958;28;20040;-75
2023/07/29 08:54:08;;;;;;;8.02;1.92;;;18.90;99.90;;;;;;4974147;28;20046;-74
2023/07/29 08:56:34;;;;;;;10.18;2.17;;;18.80;99.90;;;;;;4973664;28;20026;-74
2023/07/29 08:59:02;;;;;;;7.82;2.05;;;18.60;99.90;;;;;;4975027;28;20038;-74
2023/07/29 09:01:28;;;;;;;10.23;2.40;;;18.30;99.90;;;;;;4974573;28;20425;-74
2023/07/29 09:03:54;;;;;;;8.52;2.15;;;18.40;99.90;;;;;;4973762;28;20409;-74
2023/07/29 09:06:21;;;;;;;13.25;2.30;;;18.50;99.90;;;;;;4974940;28;20050;-74
2023/07/29 09:08:50;;;;;;;13.93;2.60;;;18.60;99.90;;;;;;4974796;28;20464;-73
2023/07/29 09:11:17;;;;;;;8.88;2.15;;;18.70;99.90;;;;;;4974130;28;20442;-76
2023/07/29 09:13:43;;;;;;;9.77;1.98;;;18.90;99.90;;;;;;4975173;28;20064;-75
2023/07/29 09:16:09;;;;;;;11.27;2.65;;;19.00;99.90;;;;;;4975053;28;20486;-75
2023/07/29 09:18:35;;;;;;;7.68;1.92;;;19.20;99.90;;;;;;4993908;28;20466;-75
2023/07/29 09:21:01;;;;;;;8.02;2.53;;;19.20;99.90;;;;;;4994956;28;20026;-76
2023/07/29 09:23:27;;;;;;;8.73;1.92;;;19.20;99.90;;;;;;4994059;28;20297;-75
2023/07/29 09:26:03;;;;;;;8.75;2.00;;;19.30;99.90;;;;;;4994411;28;20391;-75
2023/07/29 09:28:34;;;;;;;6.50;1.85;;;19.30;99.90;;;;;;4994238;28;20023;-74
2023/07/29 09:31:00;;;;;;;15.18;2.58;;;19.40;99.90;;;;;;4994333;28;20034;-74
2023/07/29 09:33:26;;;;;;;10.30;2.00;;;19.60;99.90;;;;;;4993908;28;20096;-75
2023/07/29 09:35:52;;;;;;;7.20;2.15;;;19.60;99.90;;;;;;4994390;28;20416;-74
2023/07/29 09:38:18;;;;;;;5.80;1.58;;;19.60;99.90;;;;;;4993632;28;20104;-75
2023/07/29 09:40:47;;;;;;;7.43;1.92;;;19.50;99.90;;;;;;4993870;28;20027;-75
2023/07/29 09:43:12;;;;;;;11.55;2.22;;;19.30;99.90;;;;;;4992278;28;20030;-76
2023/07/29 09:45:39;;;;;;;20.40;3.10;;;19.00;99.90;;;;;;4992874;28;20049;-75
2023/07/29 09:48:09;;;;;;;9.57;1.95;;;18.70;99.90;;;;;;4993451;28;20455;-75
2023/07/29 09:50:35;;;;;;;15.27;2.30;;;18.60;99.90;;;;;;4993326;28;20044;-75
2023/07/29 09:53:02;;;;;;;27.10;2.92;;;18.40;99.90;;;;;;4993966;28;20026;-76
2023/07/29 09:55:28;;;;;;;21.42;3.00;;;18.20;99.90;;;;;;4993195;28;20043;-75
2023/07/29 09:58:03;;;;;;;10.48;2.00;;;18.10;99.90;;;;;;4993755;28;20038;-76
2023/07/29 10:00:30;;;;;;;12.32;2.53;;;18.00;99.90;;;;;;4993163;28;20057;-74
2023/07/29 10:02:57;;;;;;;13.88;2.10;;;17.90;99.90;;;;;;4993514;28;20030;-75
2023/07/29 10:05:25;;;;;;;7.55;1.85;;;17.80;99.90;;;;;;4993003;28;20133;-74
2023/07/29 10:07:51;;;;;;;9.75;2.25;;;17.70;99.90;;;;;;4983546;28;20038;-75
2023/07/29 10:10:17;;;;;;;10.43;2.20;;;17.70;99.90;;;;;;4972011;28;20440;-75
2023/07/29 10:12:43;;;;;;;7.28;2.00;;;17.70;99.90;;;;;;4977386;28;20057;-75
2023/07/29 10:15:10;;;;;;;7.85;1.95;;;17.60;99.90;;;;;;4992166;28;20468;-75
2023/07/29 10:17:37;;;;;;;8.32;2.13;;;17.80;99.90;;;;;;4993228;28;20035;-74
2023/07/29 10:20:07;;;;;;;9.68;2.10;;;18.10;99.90;;;;;;4994015;28;20030;-75
2023/07/29 10:22:41;;;;;;;4.47;1.50;;;18.50;99.90;;;;;;4994126;28;20030;-75
2023/07/29 10:25:19;;;;;;;8.95;1.85;;;18.70;99.90;;;;;;4993342;28;20096;-75
2023/07/29 10:27:59;;;;;;;7.57;1.88;;;18.90;99.90;;;;;;4994203;28;20038;-74
2023/07/29 10:30:25;;;;;;;8.05;1.90;;;18.90;99.90;;;;;;4992348;28;20468;-74
2023/07/29 10:32:53;;;;;;;8.98;2.03;;;18.90;99.90;;;;;;4993420;28;20054;-75
2023/07/29 10:35:18;;;;;;;13.23;2.15;;;18.90;99.90;;;;;;4993599;28;20034;-76
2023/07/29 10:37:46;;;;;;;6.43;1.70;;;18.90;99.90;;;;;;4994208;28;20053;-74
2023/07/29 10:40:12;;;;;;;5.95;1.75;;;18.80;99.90;;;;;;4993455;28;20049;-75
2023/07/29 10:42:38;;;;;;;9.82;1.65;;;18.70;99.90;;;;;;4992981;28;20037;-74
2023/07/29 10:45:22;;;;;;;3.50;1.23;;;18.70;99.90;;;;;;4993503;28;20180;-75
2023/07/29 10:47:48;;;;;;;5.90;2.00;;;18.60;99.90;;;;;;4992959;28;20057;-75
2023/07/29 10:50:19;;;;;;;5.28;1.50;;;18.80;99.90;;;;;;4993739;28;20038;-75
2023/07/29 10:52:49;;;;;;;8.48;1.58;;;18.80;99.90;;;;;;4993559;28;20185;-74
2023/07/29 10:55:27;;;;;;;11.32;2.05;;;18.90;99.90;;;;;;4993186;28;20038;-74
2023/07/29 10:58:14;;;;;;;6.22;1.48;;;19.00;99.90;;;;;;4992722;28;20031;-74
2023/07/29 11:00:44;;;;;;;5.68;1.50;;;19.00;99.90;;;;;;4992012;28;20027;-74
2023/07/29 11:03:14;;;;;;;6.85;1.63;;;19.00;99.90;;;;;;4992646;28;20419;-74
2023/07/29 11:05:48;;;;;;;10.60;1.23;;;19.00;99.90;;;;;;4992087;28;20422;-74
2023/07/29 11:08:33;;;;;;;3.95;0.90;;;19.00;99.90;;;;;;4993039;28;20117;-74
2023/07/29 11:10:59;;;;;;;4.10;1.10;;;18.80;99.90;;;;;;4992515;28;20034;-74
2023/07/29 11:13:31;;;;;;;2.67;0.63;;;18.60;99.90;;;;;;4991959;28;20352;-75
2023/07/29 11:15:58;;;;;;;3.58;1.20;;;18.40;99.90;;;;;;4992046;28;20026;-74
2023/07/29 11:18:35;;;;;;;2.70;0.65;;;18.40;99.90;;;;;;4991867;28;20460;-75
2023/07/29 11:21:04;;;;;;;3.28;0.73;;;18.60;99.90;;;;;;4992213;28;20042;-74
2023/07/29 11:23:32;;;;;;;6.10;1.17;;;18.80;99.90;;;;;;4991944;28;20117;-75
2023/07/29 11:25:58;;;;;;;2.60;0.95;;;19.00;99.90;;;;;;4991825;28;20026;-75
2023/07/29 11:28:25;;;;;;;3.60;1.08;;;19.10;99.90;;;;;;4991790;28;20030;-75
2023/07/29 11:30:51;;;;;;;5.43;1.20;;;19.30;99.90;;;;;;4991629;28;20034;-75
2023/07/29 11:33:20;;;;;;;5.63;1.20;;;19.30;99.90;;;;;;4991635;28;20026;-74
2023/07/29 11:35:46;;;;;;;5.35;1.40;;;19.40;99.90;;;;;;4991623;28;20054;-75
2023/07/29 11:38:16;;;;;;;7.32;1.30;;;19.20;99.90;;;;;;4991485;28;20057;-75
2023/07/29 11:40:42;;;;;;;3.67;1.30;;;19.20;99.90;;;;;;4991356;28;20491;-74
2023/07/29 11:43:08;;;;;;;3.80;1.20;;;19.20;99.90;;;;;;4991923;28;20058;-75
2023/07/29 11:45:34;;;;;;;7.18;1.30;;;19.40;99.90;;;;;;4990872;28;20046;-75
2023/07/29 11:48:01;;;;;;;6.20;1.42;;;19.50;99.90;;;;;;4991483;28;20176;-75
2023/07/29 11:50:27;;;;;;;4.70;1.40;;;19.70;99.90;;;;;;4991545;28;20022;-75
2023/07/29 11:52:54;;;;;;;4.03;1.38;;;19.90;99.90;;;;;;4991426;28;20049;-75
2023/07/29 11:55:20;;;;;;;4.97;1.48;;;20.00;99.90;;;;;;4991496;28;20030;-77
2023/07/29 11:57:51;;;;;;;4.05;1.27;;;20.40;99.90;;;;;;4990876;28;20108;-76
2023/07/29 12:00:18;;;;;;;7.63;1.60;;;20.60;99.90;;;;;;4991473;28;20149;-74
2023/07/29 12:02:47;;;;;;;5.07;1.48;;;20.80;99.90;;;;;;4990400;28;20030;-76
2023/07/29 12:05:15;;;;;;;3.85;1.00;;;20.80;99.90;;;;;;4990709;28;20087;-75
2023/07/29 12:07:42;;;;;;;8.52;1.48;;;20.80;99.90;;;;;;4988577;28;20038;-75
2023/07/29 12:10:09;;;;;;;5.78;1.30;;;20.80;99.90;;;;;;4990628;28;20027;-75
2023/07/29 12:12:53;;;;;;;3.38;1.50;;;20.80;99.90;;;;;;4991450;28;20388;-73
2023/07/29 12:15:29;;;;;;;7.35;1.60;;;20.60;99.90;;;;;;4991228;28;20038;-74
2023/07/29 12:17:59;;;;;;;5.30;1.30;;;20.70;99.90;;;;;;4990769;28;20028;-74
2023/07/29 12:20:29;;;;;;;4.82;1.55;;;20.70;99.90;;;;;;4990490;28;20058;-75
2023/07/29 12:23:02;;;;;;;6.45;1.52;;;20.80;99.90;;;;;;4989433;28;20475;-75
2023/07/29 12:25:28;;;;;;;;;;;20.90;99.90;;;;;;4991578;28;20042;-75
2023/07/29 12:27:54;;;;;;;5.80;1.30;;;21.10;99.90;;;;;;4991288;28;19980;-76
2023/07/29 12:30:23;;;;;;;5.22;1.70;;;21.00;99.90;;;;;;4991462;28;20464;-75
2023/07/29 12:32:48;;;;;;;7.10;1.45;;;21.00;99.90;;;;;;4990361;28;20468;-76
2023/07/29 12:35:14;;;;;;;5.88;1.40;;;20.80;99.90;;;;;;4990356;28;20044;-76
2023/07/29 12:37:43;;;;;;;5.63;1.80;;;20.70;99.90;;;;;;4989942;28;20046;-76
2023/07/29 12:40:25;;;;;;;7.47;1.70;;;20.70;99.90;;;;;;4990728;28;20037;-75
2023/07/29 12:42:51;;;;;;;9.90;1.70;;;20.90;99.90;;;;;;4990901;28;20023;-75